createdAt,value
2018-07-14T00:03:47.930Z,6.30
2018-07-14T00:08:51.335Z,6.80
2018-07-14T00:13:55.180Z,6.85
2018-07-14T00:19:01.538Z,7.08
2018-07-14T00:24:05.696Z,6.97
2018-07-14T00:29:09.945Z,7.40
2018-07-14T00:34:13.301Z,7.10
2018-07-14T00:39:17.876Z,6.70
2018-07-14T00:44:21.405Z,6.65
2018-07-14T00:49:24.841Z,7.08
2018-07-14T00:54:28.288Z,6.70
2018-07-14T00:59:32.756Z,6.33
2018-07-14T01:04:36.087Z,7.10
2018-07-14T01:09:41.181Z,7.20
2018-07-14T01:14:48.756Z,6.50
2018-07-14T01:19:52.220Z,7.30
2018-07-14T01:24:55.797Z,7.60
2018-07-14T01:29:59.299Z,6.87
2018-07-14T01:35:02.663Z,7.35
2018-07-14T01:40:06.090Z,7.40
2018-07-14T01:45:10.650Z,7.30
2018-07-14T01:50:14.140Z,6.92
2018-07-14T01:55:17.507Z,6.60
2018-07-14T02:00:21.102Z,7.30
2018-07-14T02:05:24.521Z,7.25
2018-07-14T02:10:27.928Z,7.50
2018-07-14T02:15:31.272Z,7.30
2018-07-14T02:20:34.820Z,7.40
2018-07-14T02:25:38.468Z,7.90
2018-07-14T02:30:41.971Z,7.90
2018-07-14T02:35:45.413Z,7.60
2018-07-14T02:40:48.904Z,7.83
2018-07-14T02:45:52.268Z,7.33
2018-07-14T02:50:55.692Z,7.58
2018-07-14T02:56:04.310Z,8.00
2018-07-14T03:01:08.535Z,7.60
2018-07-14T03:06:11.930Z,8.70
2018-07-14T03:11:15.374Z,8.40
2018-07-14T03:16:19.753Z,8.13
2018-07-14T03:21:23.199Z,8.70
2018-07-14T03:26:26.613Z,8.60
2018-07-14T03:31:31.053Z,8.80
2018-07-14T03:36:34.511Z,8.10
2018-07-14T03:41:39.152Z,8.18
2018-07-14T03:46:43.427Z,7.70
2018-07-14T03:51:46.892Z,8.70
2018-07-14T03:56:50.437Z,7.90
2018-07-14T04:01:54.085Z,7.70
2018-07-14T04:06:57.469Z,8.13
2018-07-14T04:12:01.185Z,7.80
2018-07-14T04:17:06.801Z,7.10
2018-07-14T04:22:10.455Z,7.60
2018-07-14T04:27:15.956Z,7.67
2018-07-14T04:32:26.692Z,8.58
2018-07-14T04:37:32.336Z,9.00
2018-07-14T04:42:42.610Z,8.20
2018-07-14T04:47:46.206Z,8.67
2018-07-14T04:52:49.665Z,7.80
2018-07-14T04:57:53.577Z,7.43
2018-07-14T05:02:56.904Z,7.90
2018-07-14T05:07:59.966Z,8.25
2018-07-14T05:13:03.375Z,7.90
2018-07-14T05:18:06.791Z,7.75
2018-07-14T05:23:10.122Z,7.70
2018-07-14T05:28:32.093Z,8.58
2018-07-14T05:33:35.615Z,8.00
2018-07-14T05:38:38.878Z,8.20
2018-07-14T05:43:42.421Z,8.13
2018-07-14T05:48:46.774Z,7.92
2018-07-14T05:53:50.088Z,8.30
2018-07-14T05:58:53.471Z,8.10
2018-07-14T06:03:56.859Z,7.50
2018-07-14T06:09:03.706Z,7.35
2018-07-14T06:14:07.195Z,7.10
2018-07-14T06:19:13.768Z,6.70
2018-07-14T06:24:17.386Z,6.90
2018-07-14T06:29:20.918Z,7.80
2018-07-14T06:34:24.283Z,6.90
2018-07-14T06:39:27.714Z,8.00
2018-07-14T06:44:31.108Z,8.03
2018-07-14T06:49:34.547Z,8.20
2018-07-14T06:54:38.758Z,7.70
2018-07-14T08:11:52.881Z,5.00
2018-07-14T08:16:56.254Z,4.70
2018-07-14T08:22:06.614Z,4.33
2018-07-14T08:27:12.109Z,4.60
2018-07-14T08:32:15.673Z,4.40
2018-07-14T08:37:19.680Z,4.60
2018-07-14T08:42:24.481Z,4.60
2018-07-14T08:47:31.896Z,4.47
2018-07-14T08:52:37.388Z,5.10
2018-07-14T08:57:40.892Z,4.73
2018-07-14T09:02:44.466Z,5.00
2018-07-14T09:07:47.966Z,4.70
2018-07-14T09:12:51.990Z,4.42
2018-07-14T09:17:57.039Z,4.60
2018-07-14T09:23:04.490Z,4.10
2018-07-14T09:28:08.235Z,4.30
2018-07-14T09:33:12.281Z,4.25
2018-07-14T09:38:16.015Z,3.60
2018-07-14T09:43:19.734Z,3.17
2018-07-14T09:48:23.361Z,3.30
2018-07-14T09:53:27.562Z,3.23
2018-07-14T09:59:02.341Z,3.60
2018-07-14T10:04:06.390Z,3.40
2018-07-14T10:09:10.022Z,3.00
2018-07-14T10:23:07.836Z,2.60
2018-07-14T10:28:11.539Z,2.92
2018-07-14T10:33:15.282Z,3.00
2018-07-14T10:38:22.406Z,2.65
2018-07-14T10:43:26.948Z,3.00
2018-07-14T10:48:32.744Z,2.70
2018-07-14T10:53:40.327Z,3.20
2018-07-14T10:58:43.964Z,3.10
2018-07-14T11:03:48.299Z,2.92
2018-07-14T11:08:52.260Z,2.90
2018-07-14T11:13:56.515Z,2.90
2018-07-14T11:19:01.414Z,2.83
2018-07-14T11:24:14.279Z,2.75
2018-07-14T11:29:17.962Z,2.80
2018-07-14T11:34:26.858Z,3.10
2018-07-14T11:39:30.401Z,2.70
2018-07-14T11:44:34.485Z,2.70
2018-07-14T11:49:38.305Z,2.50
2018-07-14T11:54:42.215Z,2.72
2018-07-14T11:59:47.037Z,2.50
2018-07-14T12:04:55.653Z,2.98
2018-07-14T12:09:59.221Z,2.80
2018-07-14T12:20:44.955Z,2.90
2018-07-14T12:25:48.638Z,2.55
2018-07-14T12:30:53.119Z,2.60
2018-07-14T12:36:08.067Z,2.70
2018-07-14T12:41:13.372Z,2.77
2018-07-14T12:46:17.066Z,2.70
2018-07-14T12:51:21.237Z,2.60
2018-07-14T12:56:28.219Z,2.80
2018-07-14T13:01:48.439Z,2.70
2018-07-14T13:06:55.580Z,2.90
2018-07-14T13:13:25.271Z,2.80
2018-07-14T13:18:28.884Z,2.72
2018-07-14T13:23:35.559Z,3.20
2018-07-14T13:28:39.486Z,2.60
2018-07-14T13:33:43.204Z,2.57
2018-07-14T13:38:51.736Z,2.62
2018-07-14T13:43:55.544Z,2.80
2018-07-14T13:48:59.445Z,2.70
2018-07-14T13:54:04.883Z,2.60
2018-07-14T13:59:08.732Z,2.50
2018-07-14T14:04:12.640Z,2.40
2018-07-14T14:09:16.509Z,2.70
2018-07-14T14:14:20.354Z,4.12
2018-07-14T14:19:24.096Z,3.00
2018-07-14T14:24:28.620Z,3.12
2018-07-14T14:29:33.286Z,2.80
2018-07-14T14:34:37.968Z,2.93
2018-07-14T14:39:42.227Z,3.02
2018-07-14T14:44:50.677Z,2.70
2018-07-14T14:49:55.590Z,3.45
2018-07-14T14:54:59.246Z,2.80
2018-07-14T15:00:03.209Z,3.30
2018-07-14T15:05:06.877Z,3.40
2018-07-14T15:10:11.644Z,3.17
2018-07-14T15:15:15.346Z,3.27
2018-07-14T15:20:19.061Z,3.00
2018-07-14T15:25:27.462Z,2.90
2018-07-14T15:30:31.094Z,2.80
2018-07-14T15:35:34.900Z,3.10
2018-07-14T15:40:38.501Z,3.05
2018-07-14T15:45:43.278Z,3.00
2018-07-14T15:50:46.700Z,2.90
2018-07-14T15:55:50.401Z,2.80
2018-07-14T16:00:58.059Z,3.02
2018-07-14T16:06:03.268Z,2.70
2018-07-14T16:11:07.411Z,3.13
2018-07-14T16:16:11.017Z,3.20
2018-07-14T16:21:14.749Z,3.13
2018-07-14T16:26:19.686Z,3.10
2018-07-14T16:31:23.174Z,3.20
2018-07-14T16:36:26.592Z,2.92
2018-07-14T16:41:30.088Z,3.10
2018-07-14T16:46:33.687Z,3.10
2018-07-14T16:51:37.735Z,3.07
2018-07-14T16:56:41.456Z,3.00
2018-07-14T17:01:44.874Z,2.85
2018-07-14T17:06:51.566Z,2.72
2018-07-14T17:11:54.992Z,3.03
2018-07-14T17:16:58.386Z,4.15
2018-07-14T17:22:01.931Z,2.90
2018-07-14T17:27:05.730Z,2.80
2018-07-14T17:32:09.255Z,3.20
2018-07-14T17:37:12.670Z,2.60
2018-07-14T17:42:16.023Z,2.80
2018-07-14T17:47:21.338Z,2.90
2018-07-14T18:13:44.355Z,3.80
2018-07-14T18:18:47.835Z,3.60
2018-07-14T18:23:51.187Z,5.20
2018-07-14T18:28:57.427Z,6.35
2018-07-14T18:34:00.843Z,5.63
2018-07-14T18:39:06.613Z,3.50
2018-07-14T18:44:11.193Z,3.60
2018-07-14T18:49:17.251Z,3.80
2018-07-14T18:54:26.309Z,3.83
2018-07-14T18:59:33.013Z,3.85
2018-07-14T19:04:38.108Z,3.92
2018-07-14T19:09:48.148Z,4.20
2018-07-14T19:14:52.183Z,4.90
2018-07-14T19:19:59.335Z,6.00
2018-07-14T19:25:12.044Z,4.45
2018-07-14T19:30:28.904Z,4.90
2018-07-14T19:35:41.802Z,5.20
2018-07-14T19:40:45.492Z,4.90
2018-07-14T19:45:48.821Z,4.40
2018-07-14T19:50:55.259Z,4.67
2018-07-14T19:56:14.016Z,4.50
2018-07-14T20:01:17.374Z,4.47
2018-07-14T20:06:20.790Z,4.83
2018-07-14T20:11:26.129Z,4.40
2018-07-14T20:16:35.146Z,4.70
2018-07-14T20:21:39.563Z,4.75
2018-07-14T20:38:25.100Z,5.90
2018-07-14T20:43:33.201Z,5.60
2018-07-14T20:48:36.804Z,5.15
2018-07-14T20:53:40.572Z,5.78
2018-07-14T20:58:46.097Z,5.72
2018-07-14T21:03:49.403Z,5.45
2018-07-14T21:08:53.064Z,5.60
2018-07-14T21:14:00.446Z,5.67
2018-07-14T21:19:04.782Z,5.93
2018-07-14T21:24:08.111Z,5.83
2018-07-14T21:29:11.519Z,6.00
2018-07-14T21:34:18.404Z,5.60
2018-07-14T21:39:22.126Z,6.10
2018-07-14T21:44:25.974Z,5.80
2018-07-14T21:49:30.077Z,6.00
2018-07-14T21:54:33.501Z,6.17
2018-07-14T21:59:37.060Z,5.87
2018-07-14T22:04:44.162Z,6.00
2018-07-14T22:21:05.891Z,5.80
2018-07-14T22:26:09.292Z,6.70
2018-07-14T22:31:12.774Z,6.57
2018-07-14T22:36:16.258Z,6.90
2018-07-14T22:41:19.641Z,6.70
2018-07-14T22:46:24.229Z,6.58
2018-07-14T22:51:28.027Z,6.70
2018-07-14T22:56:32.246Z,6.80
2018-07-14T23:01:35.681Z,6.55
2018-07-14T23:06:38.992Z,6.70
2018-07-14T23:11:42.393Z,6.75
2018-07-14T23:16:46.082Z,7.20
2018-07-14T23:21:52.946Z,6.53
2018-07-14T23:26:56.320Z,7.58
2018-07-14T23:32:00.717Z,7.70
2018-07-14T23:37:05.192Z,7.60
2018-07-14T23:42:08.631Z,7.22
2018-07-14T23:47:12.120Z,7.45
2018-07-14T23:52:18.704Z,7.53
2018-07-14T23:57:23.991Z,7.78
